createdAt,value
2018-01-30T00:00:40.317Z,1024.86
2018-01-30T00:01:49.008Z,1024.84
2018-01-30T00:02:57.993Z,1024.83
2018-01-30T00:04:07.251Z,1024.83
2018-01-30T00:05:16.224Z,1024.82
2018-01-30T00:06:25.450Z,1024.83
2018-01-30T00:07:34.430Z,1024.87
2018-01-30T00:08:43.403Z,1024.88
2018-01-30T00:09:52.376Z,1024.91
2018-01-30T00:11:01.389Z,1024.96
2018-01-30T00:12:10.416Z,1025.01
2018-01-30T00:13:19.206Z,1025
2018-01-30T00:14:28.213Z,1025
2018-01-30T00:15:37.453Z,1025
2018-01-30T00:16:46.423Z,1025.05
2018-01-30T00:17:55.410Z,1025.09
2018-01-30T00:19:04.377Z,1025.1
2018-01-30T00:20:13.882Z,1025.13
2018-01-30T00:21:22.582Z,1025.14
2018-01-30T00:22:31.826Z,1025.21
2018-01-30T00:23:41.044Z,1025.22
2018-01-30T00:24:49.770Z,1025.16
2018-01-30T00:25:59.016Z,1025.15
2018-01-30T00:27:08.256Z,1025.12
2018-01-30T00:28:17.222Z,1025.09
2018-01-30T00:29:26.216Z,1025.07
2018-01-30T00:30:35.190Z,1025.09
2018-01-30T00:31:44.169Z,1025.04
2018-01-30T00:32:53.136Z,1025.02
2018-01-30T00:34:02.364Z,1025.03
2018-01-30T00:35:11.360Z,1024.99
2018-01-30T00:36:20.068Z,1025.05
2018-01-30T00:37:28.882Z,1025.07
2018-01-30T00:38:38.391Z,1025.08
2018-01-30T00:39:47.664Z,1025.14
2018-01-30T00:40:56.667Z,1025.13
2018-01-30T00:42:05.929Z,1025.13
2018-01-30T00:43:14.887Z,1025.13
2018-01-30T00:44:24.187Z,1025.17
2018-01-30T00:45:33.160Z,1025.17
2018-01-30T00:46:41.878Z,1025.19
2018-01-30T00:47:50.835Z,1025.2
2018-01-30T00:48:59.531Z,1025.22
2018-01-30T00:50:08.231Z,1025.22
2018-01-30T00:51:17.751Z,1025.22
2018-01-30T00:52:26.957Z,1025.26
2018-01-30T00:53:36.194Z,1025.27
2018-01-30T00:54:44.925Z,1025.27
2018-01-30T00:55:53.878Z,1025.24
2018-01-30T00:57:02.572Z,1025.25
2018-01-30T00:58:12.052Z,1025.25
2018-01-30T00:59:21.025Z,1025.26
2018-01-30T01:00:30.767Z,1025.31
2018-01-30T01:01:39.463Z,1025.31
2018-01-30T01:02:48.721Z,1025.27
2018-01-30T01:03:57.706Z,1025.26
2018-01-30T01:05:07.239Z,1025.24
2018-01-30T01:06:16.248Z,1025.26
2018-01-30T01:07:25.510Z,1025.27
2018-01-30T01:08:34.463Z,1025.3
2018-01-30T01:09:43.433Z,1025.28
2018-01-30T01:10:52.142Z,1025.34
2018-01-30T01:12:01.347Z,1025.31
2018-01-30T01:13:10.319Z,1025.31
2018-01-30T01:14:19.556Z,1025.29
2018-01-30T01:15:28.256Z,1025.31
2018-01-30T01:16:37.219Z,1025.31
2018-01-30T01:17:46.542Z,1025.35
2018-01-30T01:18:55.512Z,1025.34
2018-01-30T01:20:04.738Z,1025.34
2018-01-30T01:21:13.740Z,1025.35
2018-01-30T01:22:23.026Z,1025.37
2018-01-30T01:23:31.731Z,1025.37
2018-01-30T01:24:41.222Z,1025.36
2018-01-30T01:25:49.907Z,1025.39
2018-01-30T01:26:58.876Z,1025.38
2018-01-30T01:28:08.096Z,1025.38
2018-01-30T01:29:17.075Z,1025.41
2018-01-30T01:30:26.024Z,1025.44
2018-01-30T01:31:35.288Z,1025.46
2018-01-30T01:32:44.515Z,1025.51
2018-01-30T01:33:53.497Z,1025.56
2018-01-30T01:35:02.989Z,1025.53
2018-01-30T01:36:12.217Z,1025.57
2018-01-30T01:37:20.899Z,1025.58
2018-01-30T01:38:29.606Z,1025.57
2018-01-30T01:39:38.851Z,1025.61
2018-01-30T01:40:48.073Z,1025.58
2018-01-30T01:41:56.773Z,1025.61
2018-01-30T01:43:05.751Z,1025.62
2018-01-30T01:44:15.006Z,1025.63
2018-01-30T01:45:24.236Z,1025.61
2018-01-30T01:46:33.734Z,1025.63
2018-01-30T01:47:43.262Z,1025.63
2018-01-30T01:48:52.221Z,1025.61
2018-01-30T01:50:01.183Z,1025.61
2018-01-30T01:51:09.878Z,1025.54
2018-01-30T01:52:18.951Z,1025.54
2018-01-30T01:53:27.947Z,1025.55
2018-01-30T01:54:36.676Z,1025.55
2018-01-30T01:55:45.411Z,1025.56
2018-01-30T01:56:54.370Z,1025.5
2018-01-30T01:58:03.324Z,1025.5
2018-01-30T01:59:12.341Z,1025.49
2018-01-30T02:00:21.064Z,1025.48
2018-01-30T02:01:30.277Z,1025.45
2018-01-30T02:02:39.503Z,1025.43
2018-01-30T02:03:48.724Z,1025.42
2018-01-30T02:04:57.409Z,1025.37
2018-01-30T02:06:06.903Z,1025.36
2018-01-30T02:07:15.606Z,1025.38
2018-01-30T02:08:24.589Z,1025.32
2018-01-30T02:09:33.555Z,1025.31
2018-01-30T02:10:42.934Z,1025.31
2018-01-30T02:11:51.643Z,1025.32
2018-01-30T02:13:01.137Z,1025.25
2018-01-30T02:14:10.112Z,1025.28
2018-01-30T02:15:18.819Z,1025.28
2018-01-30T02:16:27.522Z,1025.29
2018-01-30T02:17:36.525Z,1025.31
2018-01-30T02:18:45.757Z,1025.33
2018-01-30T02:19:55.005Z,1025.33
2018-01-30T02:21:03.741Z,1025.33
2018-01-30T02:22:12.725Z,1025.32
2018-01-30T02:23:21.963Z,1025.31
2018-01-30T02:24:30.925Z,1025.33
2018-01-30T02:25:39.659Z,1025.32
2018-01-30T02:26:48.918Z,1025.29
2018-01-30T02:27:57.638Z,1025.27
2018-01-30T02:29:06.322Z,1025.3
2018-01-30T02:30:15.807Z,1025.28
2018-01-30T02:31:25.057Z,1025.29
2018-01-30T02:32:34.036Z,1025.29
2018-01-30T02:33:42.723Z,1025.31
2018-01-30T02:34:51.933Z,1025.29
2018-01-30T02:36:01.683Z,1025.32
2018-01-30T02:37:10.628Z,1025.31
2018-01-30T02:38:19.866Z,1025.29
2018-01-30T02:39:28.838Z,1025.24
2018-01-30T02:40:38.336Z,1025.2
2018-01-30T02:41:47.592Z,1025.22
2018-01-30T02:42:56.814Z,1025.22
2018-01-30T02:44:05.767Z,1025.22
2018-01-30T02:45:15.015Z,1025.21
2018-01-30T02:46:24.235Z,1025.18
2018-01-30T02:47:33.231Z,1025.17
2018-01-30T02:48:42.480Z,1025.13
2018-01-30T02:49:51.700Z,1025.17
2018-01-30T02:51:00.681Z,1025.18
2018-01-30T02:52:09.656Z,1025.17
2018-01-30T02:53:18.623Z,1025.17
2018-01-30T02:54:28.115Z,1025.16
2018-01-30T02:55:37.076Z,1025.17
2018-01-30T02:56:46.056Z,1025.16
2018-01-30T02:57:55.303Z,1025.15
2018-01-30T02:59:04.248Z,1025.14
2018-01-30T03:00:13.236Z,1025.09
2018-01-30T03:01:21.982Z,1025.1
2018-01-30T03:02:30.949Z,1025.08
2018-01-30T03:03:39.979Z,1025.09
2018-01-30T03:04:48.923Z,1025.13
2018-01-30T03:05:57.902Z,1025.11
2018-01-30T03:07:06.878Z,1025.13
2018-01-30T03:08:15.845Z,1025.12
2018-01-30T03:09:25.072Z,1025.13
2018-01-30T03:10:34.310Z,1025.17
2018-01-30T03:11:43.532Z,1025.14
2018-01-30T03:12:52.494Z,1025.17
2018-01-30T03:14:01.719Z,1025.12
2018-01-30T03:15:10.405Z,1025.14
2018-01-30T03:16:19.655Z,1025.14
2018-01-30T03:17:28.612Z,1025.16
2018-01-30T03:18:37.573Z,1025.13
2018-01-30T03:19:46.286Z,1025.12
2018-01-30T03:20:55.277Z,1025.14
2018-01-30T03:22:04.246Z,1025.14
2018-01-30T03:23:13.197Z,1025.13
2018-01-30T03:24:22.148Z,1025.13
2018-01-30T03:25:31.106Z,1025.16
2018-01-30T03:26:39.795Z,1025.18
2018-01-30T03:27:48.502Z,1025.16
2018-01-30T03:28:57.445Z,1025.16
2018-01-30T03:30:06.134Z,1025.15
2018-01-30T03:31:15.345Z,1025.19
2018-01-30T03:32:24.309Z,1025.17
2018-01-30T03:33:33.516Z,1025.14
2018-01-30T03:34:42.476Z,1025.12
2018-01-30T03:35:51.429Z,1025.12
2018-01-30T03:37:00.378Z,1025.14
2018-01-30T03:38:09.856Z,1025.13
2018-01-30T03:39:19.079Z,1025.1
2018-01-30T03:40:28.062Z,1025.11
2018-01-30T03:41:37.273Z,1025.09
2018-01-30T03:42:45.972Z,1025.1
2018-01-30T03:43:54.656Z,1025.15
2018-01-30T03:45:03.624Z,1025.19
2018-01-30T03:46:12.597Z,1025.18
2018-01-30T03:47:21.804Z,1025.2
2018-01-30T03:48:30.788Z,1025.21
2018-01-30T03:49:39.829Z,1025.18
2018-01-30T03:50:49.327Z,1025.2
2018-01-30T03:51:58.278Z,1025.27
2018-01-30T03:53:07.243Z,1025.24
2018-01-30T03:54:16.469Z,1025.23
2018-01-30T03:55:25.236Z,1025.24
2018-01-30T03:56:34.213Z,1025.27
2018-01-30T03:57:43.704Z,1025.25
2018-01-30T03:58:52.676Z,1025.28
2018-01-30T04:00:01.912Z,1025.28
2018-01-30T04:01:11.199Z,1025.27
2018-01-30T04:02:19.911Z,1025.3
2018-01-30T04:03:29.132Z,1025.26
2018-01-30T04:04:38.069Z,1025.28
2018-01-30T04:05:47.021Z,1025.28
2018-01-30T04:06:56.512Z,1025.29
2018-01-30T04:08:05.478Z,1025.27
2018-01-30T04:09:14.451Z,1025.28
2018-01-30T04:10:23.400Z,1025.38
2018-01-30T04:11:32.609Z,1025.4
2018-01-30T04:12:42.078Z,1025.42
2018-01-30T04:13:51.293Z,1025.42
2018-01-30T04:14:59.995Z,1025.46
2018-01-30T04:16:08.989Z,1025.46
2018-01-30T04:17:18.238Z,1025.49
2018-01-30T04:18:26.938Z,1025.51
2018-01-30T04:19:36.150Z,1025.5
2018-01-30T04:20:45.906Z,1025.52
2018-01-30T04:21:54.910Z,1025.52
2018-01-30T04:23:04.127Z,1025.54
2018-01-30T04:24:13.077Z,1025.55
2018-01-30T04:25:22.031Z,1025.54
2018-01-30T04:26:31.252Z,1025.52
2018-01-30T04:27:40.473Z,1025.49
2018-01-30T04:28:49.757Z,1025.47
2018-01-30T04:29:58.459Z,1025.51
2018-01-30T04:31:07.427Z,1025.48
2018-01-30T04:32:16.651Z,1025.47
2018-01-30T04:33:25.874Z,1025.55
2018-01-30T04:34:35.357Z,1025.47
2018-01-30T04:35:44.584Z,1025.46
2018-01-30T04:36:53.846Z,1025.46
2018-01-30T04:38:02.902Z,1025.51
2018-01-30T04:39:12.132Z,1025.47
2018-01-30T04:40:21.475Z,1025.47
2018-01-30T04:41:30.191Z,1025.47
2018-01-30T04:42:38.961Z,1025.46
2018-01-30T04:43:47.903Z,1025.46
2018-01-30T04:44:57.682Z,1025.47
2018-01-30T04:46:07.019Z,1025.48
2018-01-30T04:47:15.751Z,1025.52
2018-01-30T04:48:24.682Z,1025.51
2018-01-30T04:49:33.911Z,1025.52
2018-01-30T04:50:43.137Z,1025.5
2018-01-30T04:51:52.103Z,1025.51
2018-01-30T04:53:00.809Z,1025.5
2018-01-30T04:54:10.043Z,1025.53
2018-01-30T04:55:19.309Z,1025.48
2018-01-30T04:56:28.281Z,1025.55
2018-01-30T04:57:36.981Z,1025.51
2018-01-30T04:58:46.237Z,1025.5
2018-01-30T04:59:55.494Z,1025.45
2018-01-30T05:01:04.464Z,1025.45
2018-01-30T05:02:13.429Z,1025.44
2018-01-30T05:03:22.395Z,1025.44
2018-01-30T05:04:31.091Z,1025.46
2018-01-30T05:05:39.781Z,1025.41
2018-01-30T05:06:49.022Z,1025.43
2018-01-30T05:07:57.971Z,1025.44
2018-01-30T05:09:06.681Z,1025.46
2018-01-30T05:10:15.671Z,1025.46
2018-01-30T05:11:24.378Z,1025.4
2018-01-30T05:12:34.145Z,1025.44
2018-01-30T05:13:43.454Z,1025.37
2018-01-30T05:14:52.425Z,1025.39
2018-01-30T05:16:01.402Z,1025.39
2018-01-30T05:17:10.630Z,1025.37
2018-01-30T05:18:19.397Z,1025.44
2018-01-30T05:19:28.649Z,1025.44
2018-01-30T05:20:37.411Z,1025.42
2018-01-30T05:21:46.643Z,1025.41
2018-01-30T05:22:56.136Z,1025.36
2018-01-30T05:24:05.166Z,1025.38
2018-01-30T05:25:14.168Z,1025.41
2018-01-30T05:26:22.889Z,1025.43
2018-01-30T05:27:31.874Z,1025.41
2018-01-30T05:28:40.844Z,1025.37
2018-01-30T05:29:50.406Z,1025.38
2018-01-30T05:30:59.635Z,1025.4
2018-01-30T05:32:08.606Z,1025.39
2018-01-30T05:33:17.837Z,1025.38
2018-01-30T05:34:27.072Z,1025.4
2018-01-30T05:35:36.285Z,1025.36
2018-01-30T05:36:45.314Z,1025.35
2018-01-30T05:37:54.576Z,1025.35
2018-01-30T05:39:03.542Z,1025.38
2018-01-30T05:40:12.520Z,1025.36
2018-01-30T05:41:21.807Z,1025.42
2018-01-30T05:42:30.793Z,1025.45
2018-01-30T05:43:40.032Z,1025.49
2018-01-30T05:44:49.311Z,1025.52
2018-01-30T05:45:58.578Z,1025.55
2018-01-30T05:47:07.566Z,1025.52
2018-01-30T05:48:16.517Z,1025.57
2018-01-30T05:49:25.486Z,1025.65
2018-01-30T05:50:34.767Z,1025.71
2018-01-30T05:51:44.003Z,1025.71
2018-01-30T05:52:52.974Z,1025.71
2018-01-30T05:54:01.926Z,1025.73
2018-01-30T05:55:10.882Z,1025.73
2018-01-30T05:56:19.591Z,1025.73
2018-01-30T05:57:28.559Z,1025.74
2018-01-30T05:58:37.782Z,1025.81
2018-01-30T05:59:46.739Z,1025.89
2018-01-30T06:00:55.728Z,1025.92
2018-01-30T06:02:04.514Z,1025.89
2018-01-30T06:03:13.494Z,1025.85
2018-01-30T06:04:22.463Z,1025.86
2018-01-30T06:05:31.683Z,1025.83
2018-01-30T06:06:40.898Z,1025.87
2018-01-30T06:07:50.131Z,1025.79
2018-01-30T06:08:59.400Z,1025.84
2018-01-30T06:10:08.361Z,1025.83
2018-01-30T06:11:17.594Z,1025.87
2018-01-30T06:12:26.298Z,1025.88
2018-01-30T06:13:35.342Z,1025.91
2018-01-30T06:14:44.074Z,1025.92
2018-01-30T06:15:52.780Z,1025.93
2018-01-30T06:17:01.997Z,1025.95
2018-01-30T06:18:10.962Z,1025.9
2018-01-30T06:19:20.464Z,1025.9
2018-01-30T06:20:29.714Z,1025.9
2018-01-30T06:21:38.440Z,1025.88
2018-01-30T06:22:47.443Z,1025.77
2018-01-30T06:23:56.131Z,1025.77
2018-01-30T06:25:05.399Z,1025.79
2018-01-30T06:26:14.092Z,1025.73
2018-01-30T06:27:23.326Z,1025.69
2018-01-30T06:28:32.811Z,1025.67
2018-01-30T06:29:42.336Z,1025.56
2018-01-30T06:30:51.051Z,1025.53
2018-01-30T06:32:00.276Z,1025.49
2018-01-30T06:33:09.231Z,1025.5
2018-01-30T06:34:17.927Z,1025.55
2018-01-30T06:35:26.626Z,1025.53
2018-01-30T06:36:35.631Z,1025.5
2018-01-30T06:37:45.118Z,1025.5
2018-01-30T06:38:54.068Z,1025.59
2018-01-30T06:40:03.042Z,1025.61
2018-01-30T06:41:12.570Z,1025.58
2018-01-30T06:42:22.078Z,1025.58
2018-01-30T06:43:31.093Z,1025.49
2018-01-30T06:44:40.060Z,1025.49
2018-01-30T06:45:49.276Z,1025.55
2018-01-30T06:46:58.232Z,1025.62
2018-01-30T06:48:07.494Z,1025.65
2018-01-30T06:49:16.741Z,1025.68
2018-01-30T06:50:25.430Z,1025.66
2018-01-30T06:51:34.937Z,1025.66
2018-01-30T06:52:44.187Z,1025.67
2018-01-30T06:53:53.413Z,1025.7
2018-01-30T06:55:02.900Z,1025.72
2018-01-30T06:56:11.852Z,1025.71
2018-01-30T06:57:21.143Z,1025.74
2018-01-30T06:58:30.380Z,1025.77
2018-01-30T06:59:39.897Z,1025.8
2018-01-30T07:00:48.850Z,1025.76
2018-01-30T07:01:57.561Z,1025.73
2018-01-30T07:03:06.561Z,1025.73
2018-01-30T07:04:15.263Z,1025.67
2018-01-30T07:05:24.751Z,1025.66
2018-01-30T07:06:34.530Z,1025.62
2018-01-30T07:07:43.261Z,1025.72
2018-01-30T07:08:52.513Z,1025.78
2018-01-30T07:10:01.462Z,1025.79
2018-01-30T07:11:10.153Z,1025.76
2018-01-30T07:12:19.639Z,1025.82
2018-01-30T07:13:28.926Z,1025.82
2018-01-30T07:14:38.659Z,1025.79
2018-01-30T07:15:47.884Z,1025.77
2018-01-30T07:16:56.854Z,1025.78
2018-01-30T07:18:06.100Z,1025.81
2018-01-30T07:19:15.385Z,1025.85
2018-01-30T07:20:24.610Z,1025.85
2018-01-30T07:21:33.563Z,1025.85
2018-01-30T07:22:42.555Z,1025.94
2018-01-30T07:23:51.780Z,1025.96
2018-01-30T07:25:00.752Z,1025.93
2018-01-30T07:26:09.496Z,1025.93
2018-01-30T07:27:18.716Z,1025.94
2018-01-30T07:28:27.720Z,1025.96
2018-01-30T07:29:36.449Z,1025.94
2018-01-30T07:30:45.160Z,1025.98
2018-01-30T07:31:53.871Z,1025.97
2018-01-30T07:33:02.826Z,1025.93
2018-01-30T07:34:11.507Z,1025.98
2018-01-30T07:35:20.471Z,1025.99
2018-01-30T07:36:29.691Z,1025.98
2018-01-30T07:37:38.641Z,1026.01
2018-01-30T07:38:47.610Z,1026.09
2018-01-30T07:39:56.852Z,1026.07
2018-01-30T07:41:05.855Z,1026.06
2018-01-30T07:42:14.638Z,1026.04
2018-01-30T07:43:23.689Z,1026.02
2018-01-30T07:44:32.955Z,1026.03
2018-01-30T07:45:42.293Z,1026.03
2018-01-30T07:46:51.533Z,1026.03
2018-01-30T07:48:00.528Z,1026.05
2018-01-30T07:49:09.760Z,1026.06
2018-01-30T07:50:18.728Z,1026.07
2018-01-30T07:51:27.729Z,1026.07
2018-01-30T07:52:36.946Z,1026.08
2018-01-30T07:53:45.967Z,1026.12
2018-01-30T07:54:55.209Z,1026.08
2018-01-30T07:56:04.439Z,1026.08
2018-01-30T07:57:13.153Z,1026.05
2018-01-30T07:58:22.906Z,1026.1
2018-01-30T07:59:32.138Z,1026.08
2018-01-30T08:00:41.121Z,1026.12
2018-01-30T08:01:49.824Z,1026.11
2018-01-30T08:02:58.795Z,1026.09
2018-01-30T08:04:07.491Z,1026.04
2018-01-30T08:05:16.457Z,1026.04
2018-01-30T08:06:25.437Z,1026.01
2018-01-30T08:07:34.395Z,1026.06
2018-01-30T08:08:43.886Z,1026.08
2018-01-30T08:09:52.852Z,1026.04
2018-01-30T08:11:02.077Z,1025.99
2018-01-30T08:12:11.057Z,1026.04
2018-01-30T08:13:19.826Z,1026.03
2018-01-30T08:14:29.034Z,1026.06
2018-01-30T08:15:38.532Z,1026.08
2018-01-30T08:16:47.770Z,1026.07
2018-01-30T08:17:57.260Z,1026.09
2018-01-30T08:19:06.221Z,1026.12
2018-01-30T08:20:15.464Z,1026.1
2018-01-30T08:21:24.671Z,1026.09
2018-01-30T08:22:33.638Z,1026.07
2018-01-30T08:23:42.343Z,1026.1
2018-01-30T08:24:51.060Z,1026.13
2018-01-30T08:26:00.036Z,1026.08
2018-01-30T08:27:09.822Z,1026.1
2018-01-30T08:28:18.789Z,1026.06
2018-01-30T08:29:27.997Z,1026.07
2018-01-30T08:30:36.960Z,1026.09
2018-01-30T08:31:45.929Z,1026.09
2018-01-30T08:32:55.131Z,1026.06
2018-01-30T08:34:03.815Z,1026.02
2018-01-30T08:35:12.524Z,1026.02
2018-01-30T08:36:21.496Z,1026.02
2018-01-30T08:37:30.262Z,1026.05
2018-01-30T08:38:39.244Z,1026.09
2018-01-30T08:39:48.217Z,1026.05
2018-01-30T08:40:57.470Z,1026.03
2018-01-30T08:42:06.455Z,1026.05
2018-01-30T08:43:15.213Z,1026.09
2018-01-30T08:44:24.182Z,1026.13
2018-01-30T08:45:33.164Z,1026.15
2018-01-30T08:46:41.893Z,1026.16
2018-01-30T08:47:50.898Z,1026.07
2018-01-30T08:49:00.146Z,1026.02
2018-01-30T08:50:09.163Z,1026.02
2018-01-30T08:51:18.150Z,1026.02
2018-01-30T08:52:27.430Z,1026.01
2018-01-30T08:53:36.457Z,1026.01
2018-01-30T08:54:45.440Z,1026.01
2018-01-30T08:55:54.224Z,1026.02
2018-01-30T08:57:03.260Z,1026.03
2018-01-30T08:58:12.002Z,1026.02
2018-01-30T08:59:21.285Z,1026.01
2018-01-30T09:00:30.261Z,1025.96
2018-01-30T09:01:39.238Z,1025.96
2018-01-30T09:02:48.502Z,1025.95
2018-01-30T09:03:57.522Z,1025.95
2018-01-30T09:05:06.775Z,1025.96
2018-01-30T09:06:15.781Z,1025.92
2018-01-30T09:07:24.761Z,1025.96
2018-01-30T09:08:33.836Z,1025.98
2018-01-30T09:09:43.130Z,1026.05
2018-01-30T09:10:52.526Z,1026.05
2018-01-30T09:12:02.214Z,1025.93
2018-01-30T09:13:10.980Z,1025.92
2018-01-30T09:14:19.818Z,1025.87
2018-01-30T09:15:29.400Z,1025.94
2018-01-30T09:16:39.006Z,1025.95
2018-01-30T09:17:48.325Z,1025.92
2018-01-30T09:18:57.346Z,1025.9
2018-01-30T09:20:06.448Z,1025.93
2018-01-30T09:21:15.735Z,1025.99
2018-01-30T09:22:24.812Z,1025.97
2018-01-30T09:23:33.806Z,1025.98
2018-01-30T09:24:43.331Z,1025.99
2018-01-30T09:25:52.109Z,1025.92
2018-01-30T09:27:01.161Z,1025.97
2018-01-30T09:28:10.749Z,1026.01
2018-01-30T09:29:19.784Z,1025.99
2018-01-30T09:30:29.106Z,1026.02
2018-01-30T09:31:38.463Z,1025.98
2018-01-30T09:32:47.477Z,1026.03
2018-01-30T09:33:56.520Z,1026.04
2018-01-30T09:35:05.897Z,1026.04
2018-01-30T09:36:14.895Z,1026.01
2018-01-30T09:37:23.649Z,1025.99
2018-01-30T09:38:32.650Z,1025.98
2018-01-30T09:39:41.694Z,1026
2018-01-30T09:40:50.734Z,1026
2018-01-30T09:41:59.782Z,1026
2018-01-30T09:43:08.567Z,1026.04
2018-01-30T09:44:17.847Z,1026.07
2018-01-30T09:45:26.859Z,1026.04
2018-01-30T09:46:36.134Z,1026.06
2018-01-30T09:47:44.898Z,1026.05
2018-01-30T09:48:54.166Z,1026.03
2018-01-30T09:50:02.956Z,1026.01
2018-01-30T09:51:11.775Z,1026.04
2018-01-30T09:52:21.133Z,1026.07
2018-01-30T09:53:30.189Z,1026.06
2018-01-30T09:54:39.203Z,1026.13
2018-01-30T09:55:48.456Z,1026.12
2018-01-30T09:56:58.066Z,1026.12
2018-01-30T09:58:07.183Z,1026.06
2018-01-30T09:59:16.253Z,1026.06
2018-01-30T10:00:25.282Z,1026.04
2018-01-30T10:01:34.826Z,1026.1
2018-01-30T10:02:43.922Z,1026.1
2018-01-30T10:03:52.658Z,1026.05
2018-01-30T10:05:01.363Z,1026.05
2018-01-30T10:06:10.583Z,1026.05
2018-01-30T10:07:19.544Z,1026.04
2018-01-30T10:08:28.257Z,1026.05
2018-01-30T10:09:37.480Z,1026.04
2018-01-30T10:10:46.426Z,1025.99
2018-01-30T10:11:55.140Z,1026.03
2018-01-30T10:13:04.089Z,1026.02
2018-01-30T10:14:13.293Z,1026.04
2018-01-30T10:15:22.523Z,1026.04
2018-01-30T10:16:31.725Z,1026.03
2018-01-30T10:17:40.943Z,1025.98
2018-01-30T10:18:49.908Z,1026.03
2018-01-30T10:19:59.442Z,1026.07
2018-01-30T10:21:08.673Z,1026.03
2018-01-30T10:22:17.365Z,1026.02
2018-01-30T10:23:26.053Z,1025.98
2018-01-30T10:24:35.040Z,1025.95
2018-01-30T10:25:43.975Z,1025.94
2018-01-30T10:26:52.916Z,1025.98
2018-01-30T10:28:01.624Z,1026
2018-01-30T10:29:10.312Z,1025.95
2018-01-30T10:30:19.793Z,1025.92
2018-01-30T10:31:28.485Z,1025.89
2018-01-30T10:32:37.445Z,1025.91
2018-01-30T10:33:46.416Z,1025.91
2018-01-30T10:34:55.100Z,1025.86
2018-01-30T10:36:04.079Z,1025.83
2018-01-30T10:37:13.284Z,1025.84
2018-01-30T10:38:22.483Z,1025.84
2018-01-30T10:39:31.700Z,1025.82
2018-01-30T10:40:40.683Z,1025.77
2018-01-30T10:41:49.691Z,1025.79
2018-01-30T10:42:58.908Z,1025.79
2018-01-30T10:44:07.624Z,1025.77
2018-01-30T10:45:17.177Z,1025.77
2018-01-30T10:46:25.965Z,1025.77
2018-01-30T10:47:34.784Z,1025.73
2018-01-30T10:48:43.563Z,1025.73
2018-01-30T10:49:52.604Z,1025.76
2018-01-30T10:51:02.239Z,1025.76
2018-01-30T10:52:11.293Z,1025.72
2018-01-30T10:53:20.603Z,1025.74
2018-01-30T10:54:29.619Z,1025.68
2018-01-30T10:55:38.402Z,1025.62
2018-01-30T10:56:47.705Z,1025.62
2018-01-30T10:57:57.022Z,1025.61
2018-01-30T10:59:05.778Z,1025.6
2018-01-30T11:00:15.371Z,1025.58
2018-01-30T11:01:24.106Z,1025.55
2018-01-30T11:02:33.120Z,1025.54
2018-01-30T11:03:42.161Z,1025.54
2018-01-30T11:04:51.193Z,1025.49
2018-01-30T11:06:00.169Z,1025.47
2018-01-30T11:07:09.143Z,1025.43
2018-01-30T11:08:18.206Z,1025.41
2018-01-30T11:09:27.032Z,1025.42
2018-01-30T11:10:35.848Z,1025.35
2018-01-30T11:11:44.948Z,1025.32
2018-01-30T11:12:53.988Z,1025.35
2018-01-30T11:14:03.275Z,1025.35
2018-01-30T11:15:12.417Z,1025.3
2018-01-30T11:16:21.174Z,1025.27
2018-01-30T11:17:30.165Z,1025.21
2018-01-30T11:18:38.903Z,1025.22
2018-01-30T11:19:47.886Z,1025.26
2018-01-30T11:20:56.602Z,1025.23
2018-01-30T11:22:05.841Z,1025.18
2018-01-30T11:23:14.626Z,1025.15
2018-01-30T11:24:23.336Z,1025.15
2018-01-30T11:25:32.021Z,1025.16
2018-01-30T11:26:40.713Z,1025.18
2018-01-30T11:27:49.441Z,1025.16
2018-01-30T11:28:59.020Z,1025.14
2018-01-30T11:30:07.742Z,1025.15
2018-01-30T11:31:16.698Z,1025.13
2018-01-30T11:32:25.649Z,1025.06
2018-01-30T11:33:34.595Z,1025.06
2018-01-30T11:34:43.625Z,1025.06
2018-01-30T11:35:52.351Z,1025.1
2018-01-30T11:37:01.106Z,1025.05
2018-01-30T11:38:10.618Z,1025.06
2018-01-30T11:39:19.595Z,1025.08
2018-01-30T11:40:28.821Z,1025.06
2018-01-30T11:41:37.540Z,1025.03
2018-01-30T11:42:46.515Z,1025.01
2018-01-30T11:43:55.780Z,1025.04
2018-01-30T11:45:04.780Z,1025.04
2018-01-30T11:46:13.494Z,1025.02
2018-01-30T11:47:22.739Z,1025.02
2018-01-30T11:48:31.704Z,1025.04
2018-01-30T11:49:40.963Z,1025.06
2018-01-30T11:50:49.931Z,1025.02
2018-01-30T11:51:58.927Z,1025.04
2018-01-30T11:53:07.639Z,1025.03
2018-01-30T11:54:16.697Z,1024.98
2018-01-30T11:55:25.937Z,1024.95
2018-01-30T11:56:34.663Z,1024.94
2018-01-30T11:57:43.618Z,1024.95
2018-01-30T11:58:52.578Z,1024.9
2018-01-30T12:00:01.529Z,1024.91
2018-01-30T12:01:10.210Z,1024.9
2018-01-30T12:02:19.705Z,1024.92
2018-01-30T12:03:29.274Z,1024.94
2018-01-30T12:04:37.988Z,1024.91
2018-01-30T12:05:47.028Z,1024.84
2018-01-30T12:06:55.762Z,1024.89
2018-01-30T12:08:05.105Z,1024.92
2018-01-30T12:09:14.405Z,1024.91
2018-01-30T12:10:23.210Z,1024.88
2018-01-30T12:11:32.481Z,1024.89
2018-01-30T12:12:41.516Z,1024.89
2018-01-30T12:13:50.323Z,1024.92
2018-01-30T12:14:59.360Z,1024.88
2018-01-30T12:16:08.400Z,1024.87
2018-01-30T12:17:17.178Z,1024.86
2018-01-30T12:18:26.346Z,1024.85
2018-01-30T12:19:35.333Z,1024.88
2018-01-30T12:20:44.447Z,1024.87
2018-01-30T12:21:53.257Z,1024.9
2018-01-30T12:23:02.289Z,1024.89
2018-01-30T12:24:11.286Z,1024.91
2018-01-30T12:25:20.279Z,1024.92
2018-01-30T12:26:29.523Z,1024.83
2018-01-30T12:27:38.787Z,1024.85
2018-01-30T12:28:48.648Z,1024.84
2018-01-30T12:29:57.733Z,1024.89
2018-01-30T12:31:06.683Z,1024.85
2018-01-30T12:32:15.662Z,1024.8
2018-01-30T12:33:24.704Z,1024.82
2018-01-30T12:34:33.481Z,1024.81
2018-01-30T12:35:42.452Z,1024.79
2018-01-30T12:36:51.424Z,1024.8
2018-01-30T12:38:00.483Z,1024.77
2018-01-30T12:39:09.250Z,1024.76
2018-01-30T12:40:18.259Z,1024.76
2018-01-30T12:41:27.269Z,1024.68
2018-01-30T12:42:36.516Z,1024.64
2018-01-30T12:43:46.017Z,1024.63
2018-01-30T12:44:54.975Z,1024.61
2018-01-30T12:46:04.192Z,1024.55
2018-01-30T12:47:13.150Z,1024.58
2018-01-30T12:48:21.914Z,1024.52
2018-01-30T12:49:30.876Z,1024.52
2018-01-30T12:50:39.832Z,1024.52
2018-01-30T12:51:48.780Z,1024.49
2018-01-30T12:52:57.459Z,1024.47
2018-01-30T12:54:06.431Z,1024.43
2018-01-30T12:55:15.429Z,1024.46
2018-01-30T12:56:24.566Z,1024.4
2018-01-30T12:57:33.283Z,1024.37
2018-01-30T12:58:42.601Z,1024.33
2018-01-30T12:59:51.574Z,1024.31
2018-01-30T13:01:00.558Z,1024.29
2018-01-30T13:02:09.626Z,1024.26
2018-01-30T13:03:18.314Z,1024.2
2018-01-30T13:04:27.062Z,1024.19
2018-01-30T13:05:36.013Z,1024.14
2018-01-30T13:06:45.244Z,1024.16
2018-01-30T13:07:54.500Z,1024.11
2018-01-30T13:09:03.556Z,1024.14
2018-01-30T13:10:13.088Z,1024.12
2018-01-30T13:11:22.097Z,1024.12
2018-01-30T13:12:31.061Z,1024.11
2018-01-30T13:13:40.259Z,1024.1
2018-01-30T13:14:48.975Z,1024.14
2018-01-30T13:15:57.957Z,1024.12
2018-01-30T13:17:07.429Z,1024.07
2018-01-30T13:18:16.386Z,1024.06
2018-01-30T13:19:25.374Z,1024.04
2018-01-30T13:20:34.627Z,1024.02
2018-01-30T13:21:43.387Z,1024.01
2018-01-30T13:22:52.391Z,1023.95
2018-01-30T13:24:01.125Z,1023.92
2018-01-30T13:25:09.882Z,1023.91
2018-01-30T13:26:18.650Z,1023.87
2018-01-30T13:27:27.610Z,1023.86
2018-01-30T13:28:36.818Z,1023.88
2018-01-30T13:29:46.299Z,1023.88
2018-01-30T13:30:55.046Z,1023.89
2018-01-30T13:32:03.760Z,1023.84
2018-01-30T13:33:12.466Z,1023.85
2018-01-30T13:34:21.185Z,1023.8
2018-01-30T13:35:30.702Z,1023.74
2018-01-30T13:36:39.724Z,1023.72
2018-01-30T13:37:48.520Z,1023.66
2018-01-30T13:38:57.274Z,1023.66
2018-01-30T13:40:06.604Z,1023.68
2018-01-30T13:41:15.813Z,1023.65
2018-01-30T13:42:25.301Z,1023.64
2018-01-30T13:43:34.390Z,1023.62
2018-01-30T13:44:43.355Z,1023.64
2018-01-30T13:45:52.152Z,1023.55
2018-01-30T13:47:01.454Z,1023.58
2018-01-30T13:48:10.148Z,1023.57
2018-01-30T13:49:19.466Z,1023.53
2018-01-30T13:50:28.726Z,1023.5
2018-01-30T13:51:37.549Z,1023.51
2018-01-30T13:52:47.343Z,1023.46
2018-01-30T13:53:56.033Z,1023.42
2018-01-30T13:55:04.730Z,1023.42
2018-01-30T13:56:13.926Z,1023.45
2018-01-30T13:57:22.903Z,1023.43